M/V Manukai — WRGD — position and weather

sailwx.info

Track history (hours):
 
Tides and Currents Weather Stations Pressure Air Temp Water Temp Dewpoint Dewpoint Depression Visibility Wind Speed Wind Dir Waves Ship Positions

M/V Manukai

More information available from US FCC via Universal Licensing System and Coast Guard Vessel Documentation Center.

Last reported at 2014-Aug-28 09:32 UTC. Time now 2014-Sep-01 23:45 UTC.
Position N 31°06' E 122°27'.

Type: Ship (hazmat cat A). MMSI: 369296000.

Date/timePositionNaut miles runAvg speedWind from/ knotsBaromVisibWave heightAir tempDewpointWater temp
2014-Aug-28 09:32N 31°06' E 122°27'3213.9
2014-Aug-28 07:15N 31°16' E 121°52'1013.1
2014-Aug-28 06:30N 31°20' E 121°41'5 5.3
2014-Aug-28 05:29N 31°23' E 121°36'0 0.0
2014-Aug-28 04:23N 31°23' E 121°36'0 0.0
2014-Aug-28 03:17N 31°23' E 121°36'0 0.1
2014-Aug-28 02:33N 31°23' E 121°36'2 1.5
2014-Aug-28 01:30N 31°23' E 121°35'0 0.0
2014-Aug-28 00:30N 31°23' E 121°35'0 0.0
2014-Aug-27 23:24N 31°23' E 121°35'0 0.1
2014-Aug-27 22:33N 31°23' E 121°35'0 0.1
2014-Aug-27 21:33N 31°23' E 121°35'0 0.0
2014-Aug-27 20:25N 31°23' E 121°35'0 0.0
2014-Aug-27 19:21N 31°23' E 121°35'0 0.0
2014-Aug-27 18:31N 31°23' E 121°35'0 0.0
2014-Aug-27 17:31N 31°23' E 121°35'0 0.0
2014-Aug-27 16:31N 31°23' E 121°35'0 0.0
2014-Aug-27 15:22N 31°23' E 121°35'0 0.0
2014-Aug-27 14:32N 31°23' E 121°35'0 0.0
2014-Aug-27 13:33N 31°23' E 121°35'0 0.0
2014-Aug-27 12:25N 31°23' E 121°35'0 0.0
2014-Aug-27 11:19N 31°23' E 121°35'0 0.0
2014-Aug-27 10:25N 31°23' E 121°35'0 0.0
2014-Aug-27 09:30N 31°23' E 121°35'0 0.0
2014-Aug-27 08:30N 31°23' E 121°35'0 0.0
2014-Aug-27 07:33N 31°23' E 121°35'0 0.1
2014-Aug-27 06:33N 31°23' E 121°35'7 7.3
2014-Aug-27 05:33N 31°20' E 121°42'4810.7
2014-Aug-27 01:03N 31°00' E 122°34'815.8
2014-Aug-27 00:33N 30°56' E 122°42'3919.5
2014-Aug-26 22:33N 30°20' E 123°01'2321.1
2014-Aug-26 21:28N 29°59' E 122°52'2222.0
2014-Aug-26 20:29N 29°41' E 122°38'1718.5
2014-Aug-26 19:33N 29°45' E 122°18'1312.9
2014-Aug-26 18:33N 29°55' E 122°09'1413.7
2014-Aug-26 17:30N 29°58' E 121°52'2 0.9
2014-Aug-26 15:29N 29°57' E 121°50'0 0.0
2014-Aug-26 14:10N 29°57' E 121°50'0 0.0
2014-Aug-26 13:32N 29°57' E 121°50'0 0.0
2014-Aug-26 12:31N 29°57' E 121°50'4 4.1
2014-Aug-26 11:33N 29°59' E 121°54'1413.8
2014-Aug-26 10:33N 29°55' E 122°10'1211.9
2014-Aug-26 09:33N 29°46' E 122°18'1111.0
2014-Aug-26 08:34N 29°42' E 122°30'7 6.3
2014-Aug-26 07:28N 29°37' E 122°36'3 2.9
2014-Aug-26 06:18N 29°38' E 122°40'25821.7
2014-Aug-25 18:27N 25°35' E 121°03'7423.7
2014-Aug-25 15:20N 24°56' E 119°54'2023.9
2014-Aug-25 14:30N 24°46' E 119°35'2324.0
2014-Aug-25 13:33N 24°37' E 119°12'2424.3
2014-Aug-25 12:34N 24°23' E 118°50'2422.9
2014-Aug-25 11:30N 24°18' E 118°24'1515.5
2014-Aug-25 10:33N 24°22' E 118°08'9 9.4
2014-Aug-25 09:33N 24°30' E 118°04'0 0.4
2014-Aug-25 08:30N 24°31' E 118°05'0 0.0
2014-Aug-25 07:32N 24°31' E 118°05'0 0.0
2014-Aug-25 06:29N 24°31' E 118°05'0 0.0
2014-Aug-25 05:29N 24°31' E 118°05'0 0.0
2014-Aug-25 04:29N 24°31' E 118°05'0 0.0
2014-Aug-25 03:30N 24°31' E 118°05'5 5.5
2014-Aug-25 02:33N 24°25' E 118°04'1010.1
2014-Aug-25 01:33N 24°18' E 118°12'1717.1
2014-Aug-25 00:33N 24°06' E 118°25'11723.4
2014-Aug-24 19:33N 22°40' E 119°52'2322.5
2014-Aug-24 18:33N 22°22' E 120°06'  
2014-Aug-19 07:00N 16°06' E 154°48'   080 / 16
Track history (hours):
 
Tides and Currents Weather Stations Pressure Air Temp Water Temp Dewpoint Dewpoint Depression Visibility Wind Speed Wind Dir Waves Ship Positions

M/V Manukai

More information available from US FCC via Universal Licensing System and Coast Guard Vessel Documentation Center.

Last reported at 2014-Aug-28 09:32 UTC. Time now 2014-Sep-01 23:45 UTC.
Position N 31°06' E 122°27'.

Type: Ship (hazmat cat A). MMSI: 369296000.

Date/timePositionNaut miles runAvg speedWind from/ knotsBaromVisibWave heightAir tempDewpointWater temp
2014-Aug-28 09:32N 31°06' E 122°27'3213.9
2014-Aug-28 07:15N 31°16' E 121°52'1013.1
2014-Aug-28 06:30N 31°20' E 121°41'5 5.3
2014-Aug-28 05:29N 31°23' E 121°36'0 0.0
2014-Aug-28 04:23N 31°23' E 121°36'0 0.0
2014-Aug-28 03:17N 31°23' E 121°36'0 0.1
2014-Aug-28 02:33N 31°23' E 121°36'2 1.5
2014-Aug-28 01:30N 31°23' E 121°35'0 0.0
2014-Aug-28 00:30N 31°23' E 121°35'0 0.0
2014-Aug-27 23:24N 31°23' E 121°35'0 0.1
2014-Aug-27 22:33N 31°23' E 121°35'0 0.1
2014-Aug-27 21:33N 31°23' E 121°35'0 0.0
2014-Aug-27 20:25N 31°23' E 121°35'0 0.0
2014-Aug-27 19:21N 31°23' E 121°35'0 0.0
2014-Aug-27 18:31N 31°23' E 121°35'0 0.0
2014-Aug-27 17:31N 31°23' E 121°35'0 0.0
2014-Aug-27 16:31N 31°23' E 121°35'0 0.0
2014-Aug-27 15:22N 31°23' E 121°35'0 0.0
2014-Aug-27 14:32N 31°23' E 121°35'0 0.0
2014-Aug-27 13:33N 31°23' E 121°35'0 0.0
2014-Aug-27 12:25N 31°23' E 121°35'0 0.0
2014-Aug-27 11:19N 31°23' E 121°35'0 0.0
2014-Aug-27 10:25N 31°23' E 121°35'0 0.0
2014-Aug-27 09:30N 31°23' E 121°35'0 0.0
2014-Aug-27 08:30N 31°23' E 121°35'0 0.0
2014-Aug-27 07:33N 31°23' E 121°35'0 0.1
2014-Aug-27 06:33N 31°23' E 121°35'7 7.3
2014-Aug-27 05:33N 31°20' E 121°42'4810.7
2014-Aug-27 01:03N 31°00' E 122°34'815.8
2014-Aug-27 00:33N 30°56' E 122°42'3919.5
2014-Aug-26 22:33N 30°20' E 123°01'2321.1
2014-Aug-26 21:28N 29°59' E 122°52'2222.0
2014-Aug-26 20:29N 29°41' E 122°38'1718.5
2014-Aug-26 19:33N 29°45' E 122°18'1312.9
2014-Aug-26 18:33N 29°55' E 122°09'1413.7
2014-Aug-26 17:30N 29°58' E 121°52'2 0.9
2014-Aug-26 15:29N 29°57' E 121°50'0 0.0
2014-Aug-26 14:10N 29°57' E 121°50'0 0.0
2014-Aug-26 13:32N 29°57' E 121°50'0 0.0
2014-Aug-26 12:31N 29°57' E 121°50'4 4.1
2014-Aug-26 11:33N 29°59' E 121°54'1413.8
2014-Aug-26 10:33N 29°55' E 122°10'1211.9
2014-Aug-26 09:33N 29°46' E 122°18'1111.0
2014-Aug-26 08:34N 29°42' E 122°30'7 6.3
2014-Aug-26 07:28N 29°37' E 122°36'3 2.9
2014-Aug-26 06:18N 29°38' E 122°40'25821.7
2014-Aug-25 18:27N 25°35' E 121°03'7423.7
2014-Aug-25 15:20N 24°56' E 119°54'2023.9
2014-Aug-25 14:30N 24°46' E 119°35'2324.0
2014-Aug-25 13:33N 24°37' E 119°12'2424.3
2014-Aug-25 12:34N 24°23' E 118°50'2422.9
2014-Aug-25 11:30N 24°18' E 118°24'1515.5
2014-Aug-25 10:33N 24°22' E 118°08'9 9.4
2014-Aug-25 09:33N 24°30' E 118°04'0 0.4
2014-Aug-25 08:30N 24°31' E 118°05'0 0.0
2014-Aug-25 07:32N 24°31' E 118°05'0 0.0
2014-Aug-25 06:29N 24°31' E 118°05'0 0.0
2014-Aug-25 05:29N 24°31' E 118°05'0 0.0
2014-Aug-25 04:29N 24°31' E 118°05'0 0.0
2014-Aug-25 03:30N 24°31' E 118°05'5 5.5
2014-Aug-25 02:33N 24°25' E 118°04'1010.1
2014-Aug-25 01:33N 24°18' E 118°12'1717.1
2014-Aug-25 00:33N 24°06' E 118°25'11723.4
2014-Aug-24 19:33N 22°40' E 119°52'2322.5
2014-Aug-24 18:33N 22°22' E 120°06'  
2014-Aug-19 07:00N 16°06' E 154°48'   080 / 16

Dump ship's entire track history